Time,TemperatureF,DewpointF,PressureIn,WindDirection,WindDirectionDegrees,WindSpeedMPH,WindSpeedGustMPH,Humidity,HourlyPrecipIn,Conditions,Clouds,dailyrainin,SoftwareType,DateUTC
2013-02-07 00:00:00,45.0,43.0,-100.00,West,260,4.0,-999.0,92,0.00,,,-99.99,,2013-02-07 08:00:00,
2013-02-07 00:22:00,45.0,43.0,-100.00,West,260,4.0,-999.0,92,0.00,,,-99.99,,2013-02-07 08:22:00,
2013-02-07 00:32:00,45.0,43.0,-100.00,West,260,4.0,-999.0,92,0.00,,,-99.99,,2013-02-07 08:32:00,
2013-02-07 00:42:00,45.0,43.0,-100.00,West,260,4.0,-999.0,92,0.00,,,-99.99,,2013-02-07 08:42:00,
2013-02-07 00:52:00,45.0,43.0,-100.00,West,260,4.0,-999.0,92,0.00,,,-99.99,,2013-02-07 08:52:00,
2013-02-07 01:00:00,45.0,43.0,-100.00,NW,311,2.0,-999.0,94,0.00,,,-99.99,,2013-02-07 09:00:00,
2013-02-07 01:22:00,45.0,43.0,-100.00,NW,311,2.0,-999.0,94,0.00,,,-99.99,,2013-02-07 09:22:00,
2013-02-07 01:32:00,45.0,43.0,-100.00,NW,311,2.0,-999.0,94,0.00,,,-99.99,,2013-02-07 09:32:00,
2013-02-07 01:42:00,45.0,43.0,-100.00,NW,311,2.0,-999.0,94,0.00,,,-99.99,,2013-02-07 09:42:00,
2013-02-07 01:52:00,45.0,43.0,-100.00,NW,311,2.0,-999.0,94,0.00,,,-99.99,,2013-02-07 09:52:00,
2013-02-07 02:00:00,45.0,44.0,-100.00,SW,229,6.0,-999.0,94,0.00,,,-99.99,,2013-02-07 10:00:00,
2013-02-07 02:22:00,45.0,44.0,-100.00,SW,229,6.0,-999.0,94,0.00,,,-99.99,,2013-02-07 10:22:00,
2013-02-07 02:32:00,45.0,44.0,-100.00,SW,229,6.0,-999.0,94,0.00,,,-99.99,,2013-02-07 10:32:00,
2013-02-07 02:42:00,45.0,44.0,-100.00,SW,229,6.0,-999.0,94,0.00,,,-99.99,,2013-02-07 10:42:00,
2013-02-07 02:52:00,45.0,44.0,-100.00,SW,229,6.0,-999.0,94,0.00,,,-99.99,,2013-02-07 10:52:00,
2013-02-07 03:00:00,45.0,43.0,-100.00,SSE,150,3.0,-999.0,93,0.00,,,-99.99,,2013-02-07 11:00:00,
2013-02-07 03:23:00,45.0,43.0,-100.00,SSE,150,3.0,-999.0,93,0.00,,,-99.99,,2013-02-07 11:23:00,
2013-02-07 03:32:00,45.0,43.0,-100.00,SSE,150,3.0,-999.0,93,0.00,,,-99.99,,2013-02-07 11:32:00,
2013-02-07 03:44:00,45.0,43.0,-100.00,SSE,150,3.0,-999.0,93,0.00,,,-99.99,,2013-02-07 11:44:00,
2013-02-07 03:52:00,45.0,43.0,-100.00,SSE,150,3.0,-999.0,93,0.00,,,-99.99,,2013-02-07 11:52:00,
2013-02-07 04:00:00,44.0,42.0,-100.00,SSE,151,5.0,-999.0,95,0.00,,,-99.99,,2013-02-07 12:00:00,
2013-02-07 04:22:00,44.0,42.0,-100.00,SSE,151,5.0,-999.0,95,0.00,,,-99.99,,2013-02-07 12:22:00,
2013-02-07 04:33:00,44.0,42.0,-100.00,SSE,151,5.0,-999.0,95,0.00,,,-99.99,,2013-02-07 12:33:00,
2013-02-07 04:42:00,44.0,42.0,-100.00,SSE,151,5.0,-999.0,95,0.00,,,-99.99,,2013-02-07 12:42:00,
2013-02-07 04:53:00,44.0,42.0,-100.00,SSE,151,5.0,-999.0,95,0.00,,,-99.99,,2013-02-07 12:53:00,
2013-02-07 05:00:00,44.0,43.0,-100.00,SE,133,6.0,-999.0,95,0.00,,,-99.99,,2013-02-07 13:00:00,
2013-02-07 05:22:00,44.0,43.0,-100.00,SE,133,6.0,-999.0,95,0.00,,,-99.99,,2013-02-07 13:22:00,
2013-02-07 05:32:00,44.0,43.0,-100.00,SE,133,6.0,-999.0,95,0.00,,,-99.99,,2013-02-07 13:32:00,
2013-02-07 05:42:00,44.0,43.0,-100.00,SE,133,6.0,-999.0,95,0.00,,,-99.99,,2013-02-07 13:42:00,
2013-02-07 05:52:00,44.0,43.0,-100.00,SE,133,6.0,-999.0,95,0.00,,,-99.99,,2013-02-07 13:52:00,
2013-02-07 06:00:00,45.0,43.0,-100.00,SE,131,4.0,-999.0,95,0.00,,,-99.99,,2013-02-07 14:00:00,
2013-02-07 06:22:00,45.0,43.0,-100.00,SE,131,4.0,-999.0,95,0.00,,,-99.99,,2013-02-07 14:22:00,
2013-02-07 06:32:00,45.0,43.0,-100.00,SE,131,4.0,-999.0,95,0.00,,,-99.99,,2013-02-07 14:32:00,
2013-02-07 06:42:00,45.0,43.0,-100.00,SE,131,4.0,-999.0,95,0.00,,,-99.99,,2013-02-07 14:42:00,
2013-02-07 06:52:00,45.0,43.0,-100.00,SE,131,4.0,-999.0,95,0.00,,,-99.99,,2013-02-07 14:52:00,
2013-02-07 07:00:00,45.0,44.0,-100.00,SE,127,7.0,-999.0,95,0.00,,,-99.99,,2013-02-07 15:00:00,
2013-02-07 07:22:00,45.0,44.0,-100.00,SE,127,7.0,-999.0,95,0.00,,,-99.99,,2013-02-07 15:22:00,
2013-02-07 07:32:00,45.0,44.0,-100.00,SE,127,7.0,-999.0,95,0.00,,,-99.99,,2013-02-07 15:32:00,
2013-02-07 07:42:00,45.0,44.0,-100.00,SE,127,7.0,-999.0,95,0.00,,,-99.99,,2013-02-07 15:42:00,
2013-02-07 07:52:00,45.0,44.0,-100.00,SE,127,7.0,-999.0,95,0.00,,,-99.99,,2013-02-07 15:52:00,
2013-02-07 08:00:00,46.0,43.0,-100.00,WNW,291,5.0,-999.0,92,0.00,,,-99.99,,2013-02-07 16:00:00,
2013-02-07 08:22:00,46.0,43.0,-100.00,WNW,291,5.0,-999.0,92,0.00,,,-99.99,,2013-02-07 16:22:00,
2013-02-07 08:32:00,46.0,43.0,-100.00,WNW,291,5.0,-999.0,92,0.00,,,-99.99,,2013-02-07 16:32:00,
2013-02-07 08:42:00,46.0,43.0,-100.00,WNW,291,5.0,-999.0,92,0.00,,,-99.99,,2013-02-07 16:42:00,
2013-02-07 08:52:00,46.0,43.0,-100.00,WNW,291,5.0,-999.0,92,0.00,,,-99.99,,2013-02-07 16:52:00,
2013-02-07 09:00:00,47.0,43.0,-100.00,WSW,241,4.0,-999.0,85,0.00,,,-99.99,,2013-02-07 17:00:00,
2013-02-07 09:22:00,47.0,43.0,-100.00,WSW,241,4.0,-999.0,85,0.00,,,-99.99,,2013-02-07 17:22:00,
2013-02-07 09:32:00,47.0,43.0,-100.00,WSW,241,4.0,-999.0,85,0.00,,,-99.99,,2013-02-07 17:32:00,
2013-02-07 09:43:00,47.0,43.0,-100.00,WSW,241,4.0,-999.0,85,0.00,,,-99.99,,2013-02-07 17:43:00,
2013-02-07 09:52:00,47.0,43.0,-100.00,WSW,241,4.0,-999.0,85,0.00,,,-99.99,,2013-02-07 17:52:00,
2013-02-07 10:00:00,49.0,42.0,-100.00,West,281,5.0,-999.0,75,0.00,,,-99.99,,2013-02-07 18:00:00,
2013-02-07 10:42:00,49.0,42.0,-100.00,West,281,5.0,-999.0,75,0.00,,,-99.99,,2013-02-07 18:42:00,
2013-02-07 10:52:00,49.0,42.0,-100.00,West,281,5.0,-999.0,75,0.00,,,-99.99,,2013-02-07 18:52:00,
2013-02-07 11:00:00,51.0,42.0,-100.00,WSW,247,13.0,-999.0,70,0.00,,,-99.99,,2013-02-07 19:00:00,
2013-02-07 11:32:00,51.0,42.0,-100.00,WSW,247,13.0,-999.0,70,0.00,,,-99.99,,2013-02-07 19:32:00,
2013-02-07 11:42:00,51.0,42.0,-100.00,WSW,247,13.0,-999.0,70,0.00,,,-99.99,,2013-02-07 19:42:00,
2013-02-07 11:52:00,51.0,42.0,-100.00,WSW,247,13.0,-999.0,70,0.00,,,-99.99,,2013-02-07 19:52:00,
2013-02-07 12:00:00,51.0,39.0,-100.00,NW,304,11.0,-999.0,62,0.00,,,-99.99,,2013-02-07 20:00:00,
2013-02-07 12:22:00,51.0,39.0,-100.00,NW,304,11.0,-999.0,62,0.00,,,-99.99,,2013-02-07 20:22:00,
2013-02-07 12:32:00,51.0,39.0,-100.00,NW,304,11.0,-999.0,62,0.00,,,-99.99,,2013-02-07 20:32:00,
2013-02-07 12:42:00,51.0,39.0,-100.00,NW,304,11.0,-999.0,62,0.00,,,-99.99,,2013-02-07 20:42:00,
2013-02-07 12:52:00,51.0,39.0,-100.00,NW,304,11.0,-999.0,62,0.00,,,-99.99,,2013-02-07 20:52:00,
2013-02-07 13:00:00,52.0,34.0,-100.00,WSW,246,14.0,-999.0,49,0.00,,,-99.99,,2013-02-07 21:00:00,
2013-02-07 13:22:00,52.0,34.0,-100.00,WSW,246,14.0,-999.0,49,0.00,,,-99.99,,2013-02-07 21:22:00,
2013-02-07 13:32:00,52.0,34.0,-100.00,WSW,246,14.0,-999.0,49,0.00,,,-99.99,,2013-02-07 21:32:00,
2013-02-07 13:42:00,52.0,34.0,-100.00,WSW,246,14.0,-999.0,49,0.00,,,-99.99,,2013-02-07 21:42:00,
2013-02-07 13:52:00,52.0,34.0,-100.00,WSW,246,14.0,-999.0,49,0.00,,,-99.99,,2013-02-07 21:52:00,
2013-02-07 14:00:00,52.0,33.0,-100.00,WSW,238,13.0,-999.0,48,0.00,,,-99.99,,2013-02-07 22:00:00,
2013-02-07 14:22:00,52.0,33.0,-100.00,WSW,238,13.0,-999.0,48,0.00,,,-99.99,,2013-02-07 22:22:00,
2013-02-07 14:32:00,52.0,33.0,-100.00,WSW,238,13.0,-999.0,48,0.00,,,-99.99,,2013-02-07 22:32:00,
2013-02-07 14:42:00,52.0,33.0,-100.00,WSW,238,13.0,-999.0,48,0.00,,,-99.99,,2013-02-07 22:42:00,
2013-02-07 14:52:00,52.0,33.0,-100.00,WSW,238,13.0,-999.0,48,0.00,,,-99.99,,2013-02-07 22:52:00,
2013-02-07 15:00:00,51.0,37.0,-100.00,WSW,241,15.0,-999.0,58,0.00,,,-99.99,,2013-02-07 23:00:00,
2013-02-07 15:22:00,51.0,37.0,-100.00,WSW,241,15.0,-999.0,58,0.00,,,-99.99,,2013-02-07 23:22:00,
2013-02-07 15:32:00,51.0,37.0,-100.00,WSW,241,15.0,-999.0,58,0.00,,,-99.99,,2013-02-07 23:32:00,
2013-02-07 15:42:00,51.0,37.0,-100.00,WSW,241,15.0,-999.0,58,0.00,,,-99.99,,2013-02-07 23:42:00,
2013-02-07 15:52:00,51.0,37.0,-100.00,WSW,241,15.0,-999.0,58,0.00,,,-99.99,,2013-02-07 23:52:00,
2013-02-07 16:00:00,50.0,36.0,-100.00,WSW,251,17.0,-999.0,57,0.00,,,-99.99,,2013-02-08 00:00:00,
2013-02-07 16:22:00,50.0,36.0,-100.00,WSW,251,17.0,-999.0,57,0.00,,,-99.99,,2013-02-08 00:22:00,
2013-02-07 16:32:00,50.0,36.0,-100.00,WSW,251,17.0,-999.0,57,0.00,,,-99.99,,2013-02-08 00:32:00,
2013-02-07 16:42:00,50.0,36.0,-100.00,WSW,251,17.0,-999.0,57,0.00,,,-99.99,,2013-02-08 00:42:00,
2013-02-07 16:52:00,50.0,36.0,-100.00,WSW,251,17.0,-999.0,57,0.00,,,-99.99,,2013-02-08 00:52:00,
2013-02-07 17:00:00,49.0,38.0,-100.00,WSW,242,13.0,-999.0,63,0.00,,,-99.99,,2013-02-08 01:00:00,
2013-02-07 17:21:00,49.0,38.0,-100.00,WSW,242,13.0,-999.0,63,0.00,,,-99.99,,2013-02-08 01:21:00,
2013-02-07 17:32:00,49.0,38.0,-100.00,WSW,242,13.0,-999.0,63,0.00,,,-99.99,,2013-02-08 01:32:00,
2013-02-07 17:42:00,49.0,38.0,-100.00,WSW,242,13.0,-999.0,63,0.00,,,-99.99,,2013-02-08 01:42:00,
2013-02-07 17:52:00,49.0,38.0,-100.00,WSW,242,13.0,-999.0,63,0.00,,,-99.99,,2013-02-08 01:52:00,
2013-02-07 18:00:00,46.0,39.0,-100.00,WSW,239,7.0,-999.0,76,0.00,,,-99.99,,2013-02-08 02:00:00,
2013-02-07 18:22:00,46.0,39.0,-100.00,WSW,239,7.0,-999.0,76,0.00,,,-99.99,,2013-02-08 02:22:00,
2013-02-07 18:32:00,46.0,39.0,-100.00,WSW,239,7.0,-999.0,76,0.00,,,-99.99,,2013-02-08 02:32:00,
2013-02-07 18:42:00,46.0,39.0,-100.00,WSW,239,7.0,-999.0,76,0.00,,,-99.99,,2013-02-08 02:42:00,
2013-02-07 18:52:00,46.0,39.0,-100.00,WSW,239,7.0,-999.0,76,0.00,,,-99.99,,2013-02-08 02:52:00,
2013-02-07 19:00:00,44.0,38.0,-100.00,NW,308,3.0,-999.0,79,0.00,,,-99.99,,2013-02-08 03:00:00,
2013-02-07 19:22:00,44.0,38.0,-100.00,NW,308,3.0,-999.0,79,0.00,,,-99.99,,2013-02-08 03:22:00,
2013-02-07 19:32:00,44.0,38.0,-100.00,NW,308,3.0,-999.0,79,0.00,,,-99.99,,2013-02-08 03:32:00,
2013-02-07 19:42:00,44.0,38.0,-100.00,NW,308,3.0,-999.0,79,0.00,,,-99.99,,2013-02-08 03:42:00,
2013-02-07 19:52:00,44.0,38.0,-100.00,NW,308,3.0,-999.0,79,0.00,,,-99.99,,2013-02-08 03:52:00,
2013-02-07 20:00:00,43.0,38.0,-100.00,SW,218,5.0,-999.0,84,0.00,,,-99.99,,2013-02-08 04:00:00,
2013-02-07 20:21:00,43.0,38.0,-100.00,SW,218,5.0,-999.0,84,0.00,,,-99.99,,2013-02-08 04:21:00,
2013-02-07 20:32:00,43.0,38.0,-100.00,SW,218,5.0,-999.0,84,0.00,,,-99.99,,2013-02-08 04:32:00,
2013-02-07 20:42:00,43.0,38.0,-100.00,SW,218,5.0,-999.0,84,0.00,,,-99.99,,2013-02-08 04:42:00,
2013-02-07 20:52:00,43.0,38.0,-100.00,SW,218,5.0,-999.0,84,0.00,,,-99.99,,2013-02-08 04:52:00,
2013-02-07 21:00:00,42.0,38.0,-100.00,WSW,241,4.0,-999.0,83,0.00,,,-99.99,,2013-02-08 05:00:00,
2013-02-07 21:22:00,42.0,38.0,-100.00,WSW,241,4.0,-999.0,83,0.00,,,-99.99,,2013-02-08 05:22:00,
2013-02-07 21:32:00,42.0,38.0,-100.00,WSW,241,4.0,-999.0,83,0.00,,,-99.99,,2013-02-08 05:32:00,
2013-02-07 21:42:00,42.0,38.0,-100.00,WSW,241,4.0,-999.0,83,0.00,,,-99.99,,2013-02-08 05:42:00,
2013-02-07 21:52:00,42.0,38.0,-100.00,WSW,241,4.0,-999.0,83,0.00,,,-99.99,,2013-02-08 05:52:00,